Time;durP1;ratioP1;P1;durP2;ratioP2;P2;SDS_P1;SDS_P2;PMS_P1;PMS_P2;Temp;Humidity;BMP_temperature;BMP_pressure;BME280_temperature;BME280_humidity;BME280_pressure;Samples;Min_cycle;Max_cycle;Signal;HPM_P1;HPM_P2
2023/01/11 00:00:46;;;;;;;;;;;;;;;;;;2341499;23;7041;-65
2023/01/11 00:01:44;;;;;;;;;;;;;;;;;;2341111;23;7008;-65
2023/01/11 00:02:41;;;;;;;;;;;;;;;;;;2329145;23;7013;-65
2023/01/11 00:03:38;;;;;;;;;;;;;;;;;;2329377;23;7995;-66
2023/01/11 00:04:36;;;;;;;;;;;;;;;;;;2339593;23;7000;-65
2023/01/11 00:05:41;;;;;;;;;;;;;;;;;;2341218;23;7079;-65
2023/01/11 00:06:38;;;;;;;;;;;;;;;;;;2341380;23;7000;-66
2023/01/11 00:07:35;;;;;;;;;;;;;;;;;;2341512;23;7705;-65
2023/01/11 00:08:33;;;;;;;;;;;;;;;;;;2329643;23;6996;-65
2023/01/11 00:09:31;;;;;;;;;;;;;;;;;;2329364;23;7037;-65
2023/01/11 00:10:29;;;;;;;;;;;;;;;;;;2339966;23;7353;-65
2023/01/11 00:11:26;;;;;;;;;;;;;;;;;;2340968;23;7064;-65
2023/01/11 00:12:24;;;;;;;;;;;;;;;;;;2341419;23;7016;-66
2023/01/11 00:13:21;;;;;;;;;;;;;;;;;;2340974;23;7071;-66
2023/01/11 00:14:19;;;;;;;;;;;;;;;;;;2341707;23;7012;-66
2023/01/11 00:15:16;;;;;;;;;;;;;;;;;;2341179;23;6992;-66
2023/01/11 00:16:13;;;;;;;;;;;;;;;;;;2341164;23;7119;-66
2023/01/11 00:17:11;;;;;;;;;;;;;;;;;;2341389;23;7060;-66
2023/01/11 00:18:09;;;;;;;;;;;;;;;;;;2329428;23;7020;-66
2023/01/11 00:19:06;;;;;;;;;;;;;;;;;;2328884;23;7092;-65
2023/01/11 00:20:04;;;;;;;;;;;;;;;;;;2340096;23;6992;-65
2023/01/11 00:21:04;;;;;;;;;;;;;;;;;;2341824;23;7063;-65
2023/01/11 00:22:01;;;;;;;;;;;;;;;;;;2342080;23;7200;-65
2023/01/11 00:22:59;;;;;;;;;;;;;;;;;;2340919;23;7016;-65
2023/01/11 00:23:56;;;;;;;;;;;;;;;;;;2341537;23;7004;-66
2023/01/11 00:24:54;;;;;;;;;;;;;;;;;;2329373;23;7068;-65
2023/01/11 00:25:51;;;;;;;;;;;;;;;;;;2329393;23;7055;-65
2023/01/11 00:26:48;;;;;;;;;;;;;;;;;;2339754;23;6997;-65
2023/01/11 00:27:48;;;;;;;;;;;;;;;;;;2341016;23;7004;-65
2023/01/11 00:28:49;;;;;;;;;;;;;;;;;;2341581;23;7095;-65
2023/01/11 00:29:46;;;;;;;;;;;;;;;;;;2329401;23;8034;-66
2023/01/11 00:30:46;;;;;;;;;;;;;;;;;;2329233;23;7001;-65
2023/01/11 00:31:44;;;;;;;;;;;;;;;;;;2339982;23;7099;-66
2023/01/11 00:32:41;;;;;;;;;;;;;;;;;;2341367;23;8038;-65
2023/01/11 00:33:39;;;;;;;;;;;;;;;;;;2340824;23;7000;-66
2023/01/11 00:34:36;;;;;;;;;;;;;;;;;;2341234;23;6996;-66
2023/01/11 00:35:33;;;;;;;;;;;;;;;;;;2341390;23;6992;-65
2023/01/11 00:36:31;;;;;;;;;;;;;;;;;;2341530;23;8050;-65
2023/01/11 00:37:28;;;;;;;;;;;;;;;;;;2341160;23;7000;-65
2023/01/11 00:38:50;;;;;;;;;;;;;;;;;;2328900;23;7092;-65
2023/01/11 00:39:43;;;;;;;;;;;;;;;;;;2332087;23;7001;-66
2023/01/11 00:40:40;;;;;;;;;;;;;;;;;;2341151;23;6997;-65
2023/01/11 00:48:01;;;;;;;;;;;;;;;;;;2341470;23;7032;-65
2023/01/11 00:48:58;;;;;;;;;;;;;;;;;;2341348;23;7067;-65
2023/01/11 00:49:55;;;;;;;;;;;;;;;;;;2341339;23;7016;-66
2023/01/11 00:50:56;;;;;;;;;;;;;;;;;;2340901;23;8200;-65
2023/01/11 00:51:53;;;;;;;;;;;;;;;;;;2340996;23;7235;-66
2023/01/11 00:52:51;;;;;;;;;;;;;;;;;;2340317;23;7392;-66
2023/01/11 00:53:49;;;;;;;;;;;;;;;;;;2329515;23;7064;-65
2023/01/11 00:54:47;;;;;;;;;;;;;;;;;;2328845;23;7165;-65
2023/01/11 00:55:44;;;;;;;;;;;;;;;;;;2340252;23;7008;-65
2023/01/11 00:56:42;;;;;;;;;;;;;;;;;;2342164;23;7024;-66
2023/01/11 00:57:39;;;;;;;;;;;;;;;;;;2341283;23;7095;-65
2023/01/11 00:58:36;;;;;;;;;;;;;;;;;;2341403;23;6996;-65
2023/01/11 00:59:35;;;;;;;;;;;;;;;;;;2341196;23;7457;-66
2023/01/11 01:00:32;;;;;;;;;;;;;;;;;;2341544;23;7036;-66
2023/01/11 01:01:30;;;;;;;;;;;;;;;;;;2341605;23;7000;-66
2023/01/11 01:02:27;;;;;;;;;;;;;;;;;;2340246;23;7998;-65
2023/01/11 01:03:25;;;;;;;;;;;;;;;;;;2341056;23;7084;-64
2023/01/11 01:04:22;;;;;;;;;;;;;;;;;;2341294;23;7095;-65
2023/01/11 01:05:20;;;;;;;;;;;;;;;;;;2341445;23;6996;-65
2023/01/11 01:06:17;;;;;;;;;;;;;;;;;;2341447;23;7201;-65
2023/01/11 01:07:14;;;;;;;;;;;;;;;;;;2340818;23;7160;-65
2023/01/11 01:08:12;;;;;;;;;;;;;;;;;;2341418;23;7000;-66
2023/01/11 01:09:09;;;;;;;;;;;;;;;;;;2340960;23;7212;-65
2023/01/11 01:10:07;;;;;;;;;;;;;;;;;;2341202;23;7073;-65
2023/01/11 01:11:05;;;;;;;;;;;;;;;;;;2341149;23;7000;-66
2023/01/11 01:12:03;;;;;;;;;;;;;;;;;;2340954;23;6997;-65
2023/01/11 01:14:25;;;;;;;;;;;;;;;;;;2341293;23;7168;-66
2023/01/11 01:15:22;;;;;;;;;;;;;;;;;;2340278;23;7039;-65
2023/01/11 01:16:20;;;;;;;;;;;;;;;;;;2341009;23;7064;-66
2023/01/11 01:17:17;;;;;;;;;;;;;;;;;;2341006;23;7089;-65
2023/01/11 01:18:15;;;;;;;;;;;;;;;;;;2340782;23;7108;-65
2023/01/11 01:19:12;;;;;;;;;;;;;;;;;;2340950;23;7355;-65
2023/01/11 01:20:10;;;;;;;;;;;;;;;;;;2341108;23;7037;-65
2023/01/11 01:21:07;;;;;;;;;;;;;;;;;;2341602;23;6997;-66
2023/01/11 01:22:05;;;;;;;;;;;;;;;;;;2340791;23;8004;-66
2023/01/11 01:23:02;;;;;;;;;;;;;;;;;;2340977;23;7071;-66
2023/01/11 01:23:59;;;;;;;;;;;;;;;;;;2328855;23;9401;-65
2023/01/11 01:24:57;;;;;;;;;;;;;;;;;;2329298;23;7123;-65
2023/01/11 01:25:54;;;;;;;;;;;;;;;;;;2339104;23;7025;-65
2023/01/11 01:26:51;;;;;;;;;;;;;;;;;;2342383;23;7029;-66
2023/01/11 01:27:49;;;;;;;;;;;;;;;;;;2341065;23;7000;-66
2023/01/11 01:28:46;;;;;;;;;;;;;;;;;;2341019;23;6996;-65
2023/01/11 01:29:44;;;;;;;;;;;;;;;;;;2329430;23;7066;-66
2023/01/11 01:30:41;;;;;;;;;;;;;;;;;;2328945;23;7080;-66
2023/01/11 01:31:39;;;;;;;;;;;;;;;;;;2339040;23;7355;-65
2023/01/11 01:32:37;;;;;;;;;;;;;;;;;;2341203;23;7016;-65
2023/01/11 01:33:35;;;;;;;;;;;;;;;;;;2341416;23;7064;-66
2023/01/11 01:34:36;;;;;;;;;;;;;;;;;;2341190;23;8148;-65
2023/01/11 01:35:36;;;;;;;;;;;;;;;;;;2341258;23;6996;-65
2023/01/11 01:36:33;;;;;;;;;;;;;;;;;;2341259;23;7992;-66
2023/01/11 01:37:31;;;;;;;;;;;;;;;;;;2340972;23;7025;-66
2023/01/11 01:38:29;;;;;;;;;;;;;;;;;;2340987;23;7121;-65
2023/01/11 01:39:26;;;;;;;;;;;;;;;;;;2340572;23;6996;-66
2023/01/11 01:40:23;;;;;;;;;;;;;;;;;;2340770;23;6993;-66
2023/01/11 01:41:21;;;;;;;;;;;;;;;;;;2341192;23;6993;-66
2023/01/11 01:42:19;;;;;;;;;;;;;;;;;;2341200;23;7072;-65
2023/01/11 01:43:17;;;;;;;;;;;;;;;;;;2341034;23;6993;-66
2023/01/11 01:44:33;;;;;;;;;;;;;;;;;;2341007;23;6996;-65
2023/01/11 01:45:30;;;;;;;;;;;;;;;;;;2341051;23;7199;-65
2023/01/11 01:46:29;;;;;;;;;;;;;;;;;;2341078;23;6992;-66
2023/01/11 01:47:42;;;;;;;;;;;;;;;;;;2341177;23;7071;-66
2023/01/11 01:48:42;;;;;;;;;;;;;;;;;;2341042;23;7055;-65
2023/01/11 01:49:41;;;;;;;;;;;;;;;;;;2340805;23;6996;-66
2023/01/11 01:50:48;;;;;;;;;;;;;;;;;;2340926;23;7000;-66
2023/01/11 01:51:52;;;;;;;;;;;;;;;;;;2341161;23;7067;-65
2023/01/11 01:52:53;;;;;;;;;;;;;;;;;;2341050;23;7033;-66
2023/01/11 01:53:54;;;;;;;;;;;;;;;;;;2340916;23;7080;-65
2023/01/11 01:54:51;;;;;;;;;;;;;;;;;;2341086;23;7092;-65
2023/01/11 01:55:54;;;;;;;;;;;;;;;;;;2341425;23;7061;-66
2023/01/11 01:56:59;;;;;;;;;;;;;;;;;;2341650;23;7029;-66
2023/01/11 01:57:59;;;;;;;;;;;;;;;;;;2340795;23;7031;-66
2023/01/11 01:59:00;;;;;;;;;;;;;;;;;;2341445;23;7033;-65
2023/01/11 02:00:01;;;;;;;;;;;;;;;;;;2340818;23;7037;-66
2023/01/11 02:01:45;;;;;;;;;;;;;;;;;;2340824;23;7367;-66
2023/01/11 02:02:23;;;;;;;;;;;;;;;;;;2341069;23;7024;-65
2023/01/11 02:03:24;;;;;;;;;;;;;;;;;;2329230;23;7121;-66
2023/01/11 02:04:27;;;;;;;;;;;;;;;;;;2329138;23;7088;-66
2023/01/11 02:05:25;;;;;;;;;;;;;;;;;;2340666;23;7004;-66
2023/01/11 02:06:24;;;;;;;;;;;;;;;;;;2341009;23;7000;-65
2023/01/11 02:07:25;;;;;;;;;;;;;;;;;;2340792;23;7327;-65
2023/01/11 02:08:29;;;;;;;;;;;;;;;;;;2341303;23;7001;-65
2023/01/11 02:09:45;;;;;;;;;;;;;;;;;;2328862;23;7437;-65
2023/01/11 02:10:42;;;;;;;;;;;;;;;;;;2330964;23;7004;-65
2023/01/11 02:11:42;;;;;;;;;;;;;;;;;;2329193;23;9017;-65
2023/01/11 02:12:47;;;;;;;;;;;;;;;;;;2329179;23;7029;-65
2023/01/11 02:13:44;;;;;;;;;;;;;;;;;;2341800;23;7059;-65
2023/01/11 02:14:44;;;;;;;;;;;;;;;;;;2341133;23;7001;-65
2023/01/11 02:15:41;;;;;;;;;;;;;;;;;;2341274;23;7352;-66
2023/01/11 02:16:39;;;;;;;;;;;;;;;;;;2330464;23;7000;-66
2023/01/11 02:17:37;;;;;;;;;;;;;;;;;;2329986;23;6992;-66
2023/01/11 02:18:35;;;;;;;;;;;;;;;;;;2330425;23;7017;-66
2023/01/11 02:19:55;;;;;;;;;;;;;;;;;;2329951;23;7196;-65
2023/01/11 02:21:12;;;;;;;;;;;;;;;;;;2330012;23;6992;-66
2023/01/11 02:22:24;;;;;;;;;;;;;;;;;;2328871;23;7410;-65
2023/01/11 02:24:00;;;;;;;;;;;;;;;;;;2329864;23;6996;-65
2023/01/11 02:25:06;;;;;;;;;;;;;;;;;;2295708;23;7029;-66
2023/01/11 02:26:16;;;;;;;;;;;;;;;;;;2296090;23;7016;-65
2023/01/11 02:27:13;;;;;;;;;;;;;;;;;;2296204;23;7001;-65
2023/01/11 02:28:22;;;;;;;;;;;;;;;;;;2295455;23;7366;-65
2023/01/11 02:29:49;;;;;;;;;;;;;;;;;;2284806;23;7196;-65
2023/01/11 02:30:52;;;;;;;;;;;;;;;;;;2279066;23;7064;-65
2023/01/11 02:32:05;;;;;;;;;;;;;;;;;;2285196;23;8034;-66
2023/01/11 02:33:02;;;;;;;;;;;;;;;;;;2329582;23;7001;-66
2023/01/11 02:34:09;;;;;;;;;;;;;;;;;;2330635;23;8344;-65
2023/01/11 02:35:13;;;;;;;;;;;;;;;;;;2329473;23;7242;-66
2023/01/11 02:36:21;;;;;;;;;;;;;;;;;;2340146;23;9349;-66
2023/01/11 02:37:19;;;;;;;;;;;;;;;;;;2340415;23;7164;-65
2023/01/11 02:38:16;;;;;;;;;;;;;;;;;;2318252;23;7793;-65
2023/01/11 02:39:21;;;;;;;;;;;;;;;;;;2317734;23;7037;-66
2023/01/11 02:40:21;;;;;;;;;;;;;;;;;;2329965;23;7000;-66
2023/01/11 02:41:19;;;;;;;;;;;;;;;;;;2317642;23;9685;-65
2023/01/11 02:45:13;;;;;;;;;;;;;;;;;;2330589;23;7000;-65
2023/01/11 02:46:27;;;;;;;;;;;;;;;;;;2330427;23;7118;-66
2023/01/11 02:47:30;;;;;;;;;;;;;;;;;;2330589;23;7085;-66
2023/01/11 02:48:37;;;;;;;;;;;;;;;;;;2330438;23;7050;-65
2023/01/11 02:49:35;;;;;;;;;;;;;;;;;;2330500;23;7000;-65
2023/01/11 02:50:54;;;;;;;;;;;;;;;;;;2330806;23;7041;-66
2023/01/11 02:51:51;;;;;;;;;;;;;;;;;;2330645;23;7067;-66
2023/01/11 02:52:59;;;;;;;;;;;;;;;;;;2330676;23;6996;-66
2023/01/11 02:54:02;;;;;;;;;;;;;;;;;;2331122;23;7223;-66
2023/01/11 02:55:01;;;;;;;;;;;;;;;;;;2330962;23;6992;-66
2023/01/11 02:56:04;;;;;;;;;;;;;;;;;;2330536;23;6996;-66
2023/01/11 02:57:03;;;;;;;;;;;;;;;;;;2330821;23;7117;-66
2023/01/11 02:58:02;;;;;;;;;;;;;;;;;;2330420;23;7004;-65
2023/01/11 02:59:01;;;;;;;;;;;;;;;;;;2329829;23;7063;-65
2023/01/11 03:00:00;;;;;;;;;;;;;;;;;;2329451;23;7063;-65
2023/01/11 03:00:58;;;;;;;;;;;;;;;;;;2330412;23;7008;-66
2023/01/11 03:01:55;;;;;;;;;;;;;;;;;;2318084;23;7095;-66
2023/01/11 03:03:04;;;;;;;;;;;;;;;;;;2318712;23;7071;-65
2023/01/11 03:04:02;;;;;;;;;;;;;;;;;;2331109;23;7004;-66
2023/01/11 03:04:59;;;;;;;;;;;;;;;;;;2330878;23;7004;-65
2023/01/11 03:06:01;;;;;;;;;;;;;;;;;;2330614;23;7000;-66
2023/01/11 03:07:07;;;;;;;;;;;;;;;;;;2330326;23;7001;-65
2023/01/11 03:08:18;;;;;;;;;;;;;;;;;;2330246;23;7004;-65
2023/01/11 03:09:27;;;;;;;;;;;;;;;;;;2330826;23;7063;-66
2023/01/11 03:10:51;;;;;;;;;;;;;;;;;;2330261;23;7000;-66
2023/01/11 03:13:32;;;;;;;;;;;;;;;;;;2330647;23;6996;-65
2023/01/11 03:14:48;;;;;;;;;;;;;;;;;;2330381;23;6993;-66
2023/01/11 03:15:52;;;;;;;;;;;;;;;;;;2330357;23;7128;-65
2023/01/11 03:16:59;;;;;;;;;;;;;;;;;;2341565;23;7063;-66
2023/01/11 03:18:26;;;;;;;;;;;;;;;;;;2341543;23;7059;-65
2023/01/11 03:19:28;;;;;;;;;;;;;;;;;;2300392;23;7033;-66
2023/01/11 03:20:39;;;;;;;;;;;;;;;;;;2329155;23;7076;-66
2023/01/11 03:21:56;;;;;;;;;;;;;;;;;;2329866;23;8153;-66
2023/01/11 03:22:56;;;;;;;;;;;;;;;;;;2320467;23;7870;-66
2023/01/11 03:24:03;;;;;;;;;;;;;;;;;;2329715;23;7080;-66
2023/01/11 03:25:22;;;;;;;;;;;;;;;;;;2341451;23;7059;-66
2023/01/11 03:26:25;;;;;;;;;;;;;;;;;;2342312;23;6997;-65
2023/01/11 03:27:25;;;;;;;;;;;;;;;;;;2342050;23;7040;-65
2023/01/11 03:28:40;;;;;;;;;;;;;;;;;;2341355;23;7044;-66
2023/01/11 03:29:51;;;;;;;;;;;;;;;;;;2341933;23;7068;-66
2023/01/11 03:31:00;;;;;;;;;;;;;;;;;;2342290;23;7037;-65
2023/01/11 03:32:07;;;;;;;;;;;;;;;;;;2341688;23;8297;-66
2023/01/11 03:33:04;;;;;;;;;;;;;;;;;;2341982;23;7116;-66
2023/01/11 03:34:04;;;;;;;;;;;;;;;;;;2341368;23;7209;-65
2023/01/11 03:35:07;;;;;;;;;;;;;;;;;;2341427;23;6993;-66
2023/01/11 03:36:15;;;;;;;;;;;;;;;;;;2341567;23;7144;-65
2023/01/11 03:37:22;;;;;;;;;;;;;;;;;;2329698;23;7952;-65
2023/01/11 03:38:24;;;;;;;;;;;;;;;;;;2330476;23;7281;-65
2023/01/11 03:39:26;;;;;;;;;;;;;;;;;;2341186;23;7998;-65
2023/01/11 03:40:30;;;;;;;;;;;;;;;;;;2340949;23;6993;-65
2023/01/11 03:41:32;;;;;;;;;;;;;;;;;;2341642;23;7064;-65
2023/01/11 03:42:34;;;;;;;;;;;;;;;;;;2341435;23;7064;-66
2023/01/11 03:43:35;;;;;;;;;;;;;;;;;;2341160;23;7967;-65
2023/01/11 03:44:36;;;;;;;;;;;;;;;;;;2329902;23;8047;-66
2023/01/11 03:45:37;;;;;;;;;;;;;;;;;;2329842;23;7220;-66
2023/01/11 03:46:44;;;;;;;;;;;;;;;;;;2341556;23;7860;-65
2023/01/11 03:47:41;;;;;;;;;;;;;;;;;;2341528;23;7065;-65
2023/01/11 03:48:44;;;;;;;;;;;;;;;;;;2341321;23;7066;-65
2023/01/11 03:49:49;;;;;;;;;;;;;;;;;;2342000;23;8004;-66
2023/01/11 03:50:50;;;;;;;;;;;;;;;;;;2342126;23;7083;-65
2023/01/11 03:51:49;;;;;;;;;;;;;;;;;;2341611;23;8065;-65
2023/01/11 03:52:49;;;;;;;;;;;;;;;;;;2341618;23;7140;-65
2023/01/11 03:53:49;;;;;;;;;;;;;;;;;;2340931;23;7244;-65
2023/01/11 03:54:48;;;;;;;;;;;;;;;;;;2341230;23;7206;-65
2023/01/11 03:55:49;;;;;;;;;;;;;;;;;;2341254;23;7067;-65
2023/01/11 03:56:59;;;;;;;;;;;;;;;;;;2341511;23;6996;-65
2023/01/11 03:57:56;;;;;;;;;;;;;;;;;;2341555;23;7117;-65
2023/01/11 03:58:54;;;;;;;;;;;;;;;;;;2329946;23;9525;-65
2023/01/11 03:59:52;;;;;;;;;;;;;;;;;;2329470;23;10584;-65
2023/01/11 04:00:49;;;;;;;;;;;;;;;;;;2339470;23;7096;-66
2023/01/11 04:01:47;;;;;;;;;;;;;;;;;;2340759;23;7148;-66
2023/01/11 04:02:44;;;;;;;;;;;;;;;;;;2341531;23;7123;-66
2023/01/11 04:03:42;;;;;;;;;;;;;;;;;;2341312;23;7000;-65
2023/01/11 04:04:39;;;;;;;;;;;;;;;;;;2341104;23;7033;-65
2023/01/11 04:05:39;;;;;;;;;;;;;;;;;;2341623;23;7040;-65
2023/01/11 04:06:37;;;;;;;;;;;;;;;;;;2341243;23;7012;-66
2023/01/11 04:07:35;;;;;;;;;;;;;;;;;;2341340;23;7001;-65
2023/01/11 04:08:32;;;;;;;;;;;;;;;;;;2341156;23;7096;-66
2023/01/11 04:09:30;;;;;;;;;;;;;;;;;;2341025;23;6997;-65
2023/01/11 04:10:27;;;;;;;;;;;;;;;;;;2340788;23;7076;-65
2023/01/11 04:11:25;;;;;;;;;;;;;;;;;;2341266;23;7083;-65
2023/01/11 04:12:22;;;;;;;;;;;;;;;;;;2340684;23;7041;-66
2023/01/11 04:13:19;;;;;;;;;;;;;;;;;;2341322;23;7124;-65
2023/01/11 04:14:17;;;;;;;;;;;;;;;;;;2341880;23;7999;-66
2023/01/11 04:15:15;;;;;;;;;;;;;;;;;;2340569;23;7037;-66
2023/01/11 04:16:12;;;;;;;;;;;;;;;;;;2340972;23;7004;-65
2023/01/11 04:17:10;;;;;;;;;;;;;;;;;;2341212;23;6996;-65
2023/01/11 04:18:07;;;;;;;;;;;;;;;;;;2341048;23;7088;-65
2023/01/11 04:19:04;;;;;;;;;;;;;;;;;;2340779;23;7028;-65
2023/01/11 04:20:02;;;;;;;;;;;;;;;;;;2341516;23;7068;-66
2023/01/11 04:20:59;;;;;;;;;;;;;;;;;;2329291;23;7139;-65
2023/01/11 04:21:57;;;;;;;;;;;;;;;;;;2329133;23;7000;-65
2023/01/11 04:22:54;;;;;;;;;;;;;;;;;;2338950;23;6997;-65
2023/01/11 04:23:51;;;;;;;;;;;;;;;;;;2341368;23;7036;-65
2023/01/11 04:24:49;;;;;;;;;;;;;;;;;;2341399;23;7279;-65
2023/01/11 04:25:46;;;;;;;;;;;;;;;;;;2341814;23;7172;-65
2023/01/11 04:26:44;;;;;;;;;;;;;;;;;;2341292;23;6996;-65
2023/01/11 04:27:41;;;;;;;;;;;;;;;;;;2341287;23;7095;-66
2023/01/11 04:28:39;;;;;;;;;;;;;;;;;;2340804;23;6996;-66
2023/01/11 04:29:36;;;;;;;;;;;;;;;;;;2341058;23;7028;-65
2023/01/11 04:30:34;;;;;;;;;;;;;;;;;;2341187;23;6996;-65
2023/01/11 04:31:32;;;;;;;;;;;;;;;;;;2341487;23;7072;-66
2023/01/11 04:32:29;;;;;;;;;;;;;;;;;;2341187;23;7020;-65
2023/01/11 04:33:27;;;;;;;;;;;;;;;;;;2329103;23;7000;-65
2023/01/11 04:34:24;;;;;;;;;;;;;;;;;;2329710;23;7001;-65
2023/01/11 04:35:21;;;;;;;;;;;;;;;;;;2339389;23;7024;-66
2023/01/11 04:36:19;;;;;;;;;;;;;;;;;;2341265;23;7257;-66
2023/01/11 04:37:16;;;;;;;;;;;;;;;;;;2341369;23;7208;-65
2023/01/11 04:38:13;;;;;;;;;;;;;;;;;;2341157;23;7036;-65
2023/01/11 04:39:11;;;;;;;;;;;;;;;;;;2340753;23;6997;-65
2023/01/11 04:40:09;;;;;;;;;;;;;;;;;;2341371;23;7341;-65
2023/01/11 04:42:23;;;;;;;;;;;;;;;;;;2342094;23;7063;-65
2023/01/11 04:43:21;;;;;;;;;;;;;;;;;;2341430;23;8002;-65
2023/01/11 04:44:18;;;;;;;;;;;;;;;;;;2341015;23;7983;-64
2023/01/11 04:45:16;;;;;;;;;;;;;;;;;;2342037;23;7037;-65
2023/01/11 04:46:13;;;;;;;;;;;;;;;;;;2341204;23;7033;-65
2023/01/11 04:47:10;;;;;;;;;;;;;;;;;;2341105;23;7084;-65
2023/01/11 04:48:08;;;;;;;;;;;;;;;;;;2341321;23;7060;-66
2023/01/11 04:49:05;;;;;;;;;;;;;;;;;;2340810;23;7000;-66
2023/01/11 04:50:03;;;;;;;;;;;;;;;;;;2341473;23;7013;-65
2023/01/11 04:51:00;;;;;;;;;;;;;;;;;;2341369;23;6996;-65
2023/01/11 04:51:58;;;;;;;;;;;;;;;;;;2341310;23;6997;-65
2023/01/11 04:52:57;;;;;;;;;;;;;;;;;;2341380;23;7017;-66
2023/01/11 04:53:55;;;;;;;;;;;;;;;;;;2340794;23;7037;-65
2023/01/11 04:54:52;;;;;;;;;;;;;;;;;;2341298;23;7091;-65
2023/01/11 04:55:52;;;;;;;;;;;;;;;;;;2341329;23;7256;-66
2023/01/11 04:56:49;;;;;;;;;;;;;;;;;;2341589;23;7004;-65
2023/01/11 04:57:47;;;;;;;;;;;;;;;;;;2329745;23;7971;-65
2023/01/11 04:58:44;;;;;;;;;;;;;;;;;;2329212;23;7025;-65
2023/01/11 04:59:42;;;;;;;;;;;;;;;;;;2339471;23;7001;-65
2023/01/11 05:00:39;;;;;;;;;;;;;;;;;;2340953;23;7067;-65
2023/01/11 05:01:36;;;;;;;;;;;;;;;;;;2341409;23;7049;-65
2023/01/11 05:02:34;;;;;;;;;;;;;;;;;;2341607;23;7088;-64
2023/01/11 05:03:31;;;;;;;;;;;;;;;;;;2341892;23;6996;-65
2023/01/11 05:04:29;;;;;;;;;;;;;;;;;;2341238;23;7067;-65
2023/01/11 05:05:26;;;;;;;;;;;;;;;;;;2341612;23;7260;-65
2023/01/11 05:06:24;;;;;;;;;;;;;;;;;;2340665;23;7085;-65
2023/01/11 05:07:22;;;;;;;;;;;;;;;;;;2340811;23;7088;-66
2023/01/11 05:08:19;;;;;;;;;;;;;;;;;;2341623;23;7035;-66
2023/01/11 05:09:17;;;;;;;;;;;;;;;;;;2341757;23;7000;-65
2023/01/11 05:10:14;;;;;;;;;;;;;;;;;;2341556;23;7001;-66
2023/01/11 05:11:12;;;;;;;;;;;;;;;;;;2329495;23;7975;-65
2023/01/11 05:12:09;;;;;;;;;;;;;;;;;;2329078;23;7008;-65
2023/01/11 05:13:06;;;;;;;;;;;;;;;;;;2339081;23;7289;-65
2023/01/11 05:14:04;;;;;;;;;;;;;;;;;;2341180;23;7220;-65
2023/01/11 05:15:01;;;;;;;;;;;;;;;;;;2340852;23;6997;-66
2023/01/11 05:15:59;;;;;;;;;;;;;;;;;;2340696;23;7041;-65
2023/01/11 05:16:57;;;;;;;;;;;;;;;;;;2342086;23;7074;-65
2023/01/11 05:17:55;;;;;;;;;;;;;;;;;;2341271;23;7129;-66
2023/01/11 05:18:53;;;;;;;;;;;;;;;;;;2341049;23;7196;-64
2023/01/11 05:19:51;;;;;;;;;;;;;;;;;;2340367;23;6996;-66
2023/01/11 05:20:48;;;;;;;;;;;;;;;;;;2341332;23;7136;-65
2023/01/11 05:21:46;;;;;;;;;;;;;;;;;;2341208;23;6993;-65
2023/01/11 05:22:43;;;;;;;;;;;;;;;;;;2340809;23;7266;-65
2023/01/11 05:23:41;;;;;;;;;;;;;;;;;;2340933;23;7089;-65
2023/01/11 05:24:38;;;;;;;;;;;;;;;;;;2341732;23;6996;-65
2023/01/11 05:25:36;;;;;;;;;;;;;;;;;;2341550;23;7000;-65
2023/01/11 05:26:35;;;;;;;;;;;;;;;;;;2341420;23;7000;-65
2023/01/11 05:27:32;;;;;;;;;;;;;;;;;;2341057;23;7121;-65
2023/01/11 05:28:30;;;;;;;;;;;;;;;;;;2340899;23;7120;-66
2023/01/11 05:29:27;;;;;;;;;;;;;;;;;;2340905;23;8347;-65
2023/01/11 05:30:25;;;;;;;;;;;;;;;;;;2341019;23;7126;-65
2023/01/11 05:31:23;;;;;;;;;;;;;;;;;;2341767;23;7028;-65
2023/01/11 05:32:20;;;;;;;;;;;;;;;;;;2341810;23;7037;-65
2023/01/11 05:33:18;;;;;;;;;;;;;;;;;;2341035;23;6992;-65
2023/01/11 05:34:16;;;;;;;;;;;;;;;;;;2341315;23;6997;-66
2023/01/11 05:35:14;;;;;;;;;;;;;;;;;;2341693;23;7204;-65
2023/01/11 05:36:13;;;;;;;;;;;;;;;;;;2340802;23;7072;-65
2023/01/11 05:37:10;;;;;;;;;;;;;;;;;;2341039;23;7029;-66
2023/01/11 05:38:07;;;;;;;;;;;;;;;;;;2341603;23;7004;-65
2023/01/11 05:39:05;;;;;;;;;;;;;;;;;;2341127;23;7103;-65
2023/01/11 05:40:05;;;;;;;;;;;;;;;;;;2340918;23;7000;-66
2023/01/11 05:41:05;;;;;;;;;;;;;;;;;;2340889;23;7012;-66
2023/01/11 05:42:02;;;;;;;;;;;;;;;;;;2341227;23;7095;-65
2023/01/11 05:42:59;;;;;;;;;;;;;;;;;;2341308;23;7063;-65
2023/01/11 05:45:27;;;;;;;;;;;;;;;;;;2341260;23;7029;-65
2023/01/11 05:46:25;;;;;;;;;;;;;;;;;;2328906;23;7426;-65
2023/01/11 05:47:23;;;;;;;;;;;;;;;;;;2329294;23;6992;-65
2023/01/11 05:48:21;;;;;;;;;;;;;;;;;;2339588;23;7978;-65
2023/01/11 05:49:18;;;;;;;;;;;;;;;;;;2342210;23;7285;-65
2023/01/11 05:50:15;;;;;;;;;;;;;;;;;;2341240;23;7518;-66
2023/01/11 05:51:13;;;;;;;;;;;;;;;;;;2340720;23;7081;-64
2023/01/11 05:52:11;;;;;;;;;;;;;;;;;;2340949;23;8187;-64
2023/01/11 05:53:09;;;;;;;;;;;;;;;;;;2340845;23;7084;-66
2023/01/11 05:54:09;;;;;;;;;;;;;;;;;;2341479;23;7065;-64
2023/01/11 05:55:07;;;;;;;;;;;;;;;;;;2341280;23;7329;-65
2023/01/11 05:56:04;;;;;;;;;;;;;;;;;;2341274;23;7999;-64
2023/01/11 05:57:02;;;;;;;;;;;;;;;;;;2341074;23;7064;-65
2023/01/11 05:57:59;;;;;;;;;;;;;;;;;;2340710;23;7077;-65
2023/01/11 05:58:56;;;;;;;;;;;;;;;;;;2340946;23;7269;-65
2023/01/11 05:59:54;;;;;;;;;;;;;;;;;;2329503;23;7240;-65
2023/01/11 06:00:53;;;;;;;;;;;;;;;;;;2329119;23;7059;-65
2023/01/11 06:01:50;;;;;;;;;;;;;;;;;;2340130;23;7008;-65
2023/01/11 06:02:48;;;;;;;;;;;;;;;;;;2340795;23;7032;-65
2023/01/11 06:03:46;;;;;;;;;;;;;;;;;;2341581;23;7063;-65
2023/01/11 06:04:43;;;;;;;;;;;;;;;;;;2340906;23;7001;-66
2023/01/11 06:05:40;;;;;;;;;;;;;;;;;;2340942;23;7974;-65
2023/01/11 06:06:38;;;;;;;;;;;;;;;;;;2329308;23;7000;-64
2023/01/11 06:07:35;;;;;;;;;;;;;;;;;;2328998;23;7966;-65
2023/01/11 06:08:32;;;;;;;;;;;;;;;;;;2339443;23;7000;-64
2023/01/11 06:09:30;;;;;;;;;;;;;;;;;;2340734;23;7004;-64
2023/01/11 06:10:27;;;;;;;;;;;;;;;;;;2341353;23;8037;-66
2023/01/11 06:11:25;;;;;;;;;;;;;;;;;;2340776;23;7978;-65
2023/01/11 06:12:22;;;;;;;;;;;;;;;;;;2341561;23;7001;-65
2023/01/11 06:13:25;;;;;;;;;;;;;;;;;;2341106;23;7000;-65
2023/01/11 06:14:23;;;;;;;;;;;;;;;;;;2341260;23;7020;-65
2023/01/11 06:15:20;;;;;;;;;;;;;;;;;;2340817;23;7180;-66
2023/01/11 06:16:18;;;;;;;;;;;;;;;;;;2340971;23;7004;-65
2023/01/11 06:17:16;;;;;;;;;;;;;;;;;;2341412;23;7016;-65
2023/01/11 06:18:14;;;;;;;;;;;;;;;;;;2342113;23;7000;-64
2023/01/11 06:19:11;;;;;;;;;;;;;;;;;;2341592;23;7067;-65
2023/01/11 06:20:09;;;;;;;;;;;;;;;;;;2341154;23;7024;-65
2023/01/11 06:21:06;;;;;;;;;;;;;;;;;;2342065;23;6996;-65
2023/01/11 06:22:04;;;;;;;;;;;;;;;;;;2341485;23;7079;-66
2023/01/11 06:23:01;;;;;;;;;;;;;;;;;;2341947;23;7068;-65
2023/01/11 06:23:58;;;;;;;;;;;;;;;;;;2341872;23;7063;-65
2023/01/11 06:24:56;;;;;;;;;;;;;;;;;;2341979;23;7284;-65
2023/01/11 06:25:53;;;;;;;;;;;;;;;;;;2329571;23;7850;-65
2023/01/11 06:26:51;;;;;;;;;;;;;;;;;;2329742;23;7060;-65
2023/01/11 06:27:49;;;;;;;;;;;;;;;;;;2340279;23;7281;-65
2023/01/11 06:28:46;;;;;;;;;;;;;;;;;;2341939;23;6996;-65
2023/01/11 06:29:44;;;;;;;;;;;;;;;;;;2342001;23;7032;-65
2023/01/11 06:30:41;;;;;;;;;;;;;;;;;;2341894;23;7079;-65
2023/01/11 06:31:39;;;;;;;;;;;;;;;;;;2342123;23;7088;-66
2023/01/11 06:32:36;;;;;;;;;;;;;;;;;;2330048;23;7079;-66
2023/01/11 06:33:34;;;;;;;;;;;;;;;;;;2329665;23;7196;-65
2023/01/11 06:34:32;;;;;;;;;;;;;;;;;;2328331;23;7342;-65
2023/01/11 06:35:29;;;;;;;;;;;;;;;;;;2330093;23;7979;-65
2023/01/11 06:36:26;;;;;;;;;;;;;;;;;;2340120;23;7075;-66
2023/01/11 06:37:26;;;;;;;;;;;;;;;;;;2341633;23;7979;-65
2023/01/11 06:38:24;;;;;;;;;;;;;;;;;;2341610;23;6996;-65
2023/01/11 06:39:22;;;;;;;;;;;;;;;;;;2342103;23;6996;-65
2023/01/11 06:40:19;;;;;;;;;;;;;;;;;;2341796;23;8004;-64
2023/01/11 06:41:16;;;;;;;;;;;;;;;;;;2342252;23;7080;-65
2023/01/11 06:42:14;;;;;;;;;;;;;;;;;;2341557;23;7000;-65
2023/01/11 06:43:11;;;;;;;;;;;;;;;;;;2341319;23;6996;-64
2023/01/11 06:44:08;;;;;;;;;;;;;;;;;;2341770;23;7135;-66
2023/01/11 06:45:06;;;;;;;;;;;;;;;;;;2342038;23;6996;-64
2023/01/11 06:46:04;;;;;;;;;;;;;;;;;;2341763;23;7335;-64
2023/01/11 06:47:01;;;;;;;;;;;;;;;;;;2341658;23;6996;-65
2023/01/11 06:47:59;;;;;;;;;;;;;;;;;;2341568;23;7000;-65
2023/01/11 06:48:56;;;;;;;;;;;;;;;;;;2341649;23;7012;-65
2023/01/11 06:49:53;;;;;;;;;;;;;;;;;;2341411;23;7088;-66
2023/01/11 06:50:52;;;;;;;;;;;;;;;;;;2341399;23;7060;-65
2023/01/11 06:51:50;;;;;;;;;;;;;;;;;;2342083;23;7143;-65
2023/01/11 06:52:54;;;;;;;;;;;;;;;;;;2342086;23;7091;-65
2023/01/11 06:53:51;;;;;;;;;;;;;;;;;;2341542;23;7000;-65
2023/01/11 06:54:49;;;;;;;;;;;;;;;;;;2341685;23;7216;-65
2023/01/11 06:55:50;;;;;;;;;;;;;;;;;;2341648;23;7004;-64
2023/01/11 06:56:47;;;;;;;;;;;;;;;;;;2342256;23;7065;-65
2023/01/11 06:57:45;;;;;;;;;;;;;;;;;;2341708;23;7224;-64
2023/01/11 06:58:42;;;;;;;;;;;;;;;;;;2329582;23;6996;-66
2023/01/11 06:59:43;;;;;;;;;;;;;;;;;;2329524;23;8054;-64
2023/01/11 07:00:40;;;;;;;;;;;;;;;;;;2340981;23;7117;-64
2023/01/11 07:01:38;;;;;;;;;;;;;;;;;;2341847;23;6996;-65
2023/01/11 07:02:35;;;;;;;;;;;;;;;;;;2341745;23;6992;-64
2023/01/11 07:03:33;;;;;;;;;;;;;;;;;;2341498;23;6992;-64
2023/01/11 07:04:30;;;;;;;;;;;;;;;;;;2341670;23;8041;-65
2023/01/11 07:05:28;;;;;;;;;;;;;;;;;;2341494;23;7030;-64
2023/01/11 07:06:27;;;;;;;;;;;;;;;;;;2341801;23;7032;-65
2023/01/11 07:07:25;;;;;;;;;;;;;;;;;;2329904;23;7119;-65
2023/01/11 07:08:23;;;;;;;;;;;;;;;;;;2329839;23;8468;-65
2023/01/11 07:09:20;;;;;;;;;;;;;;;;;;2340145;23;7067;-65
2023/01/11 07:10:18;;;;;;;;;;;;;;;;;;2341881;23;7000;-65